Last 24 Hours

OV-Siberia 8700'

Hourly Data | America/Los_Angeles
as of 5/6/26 5:38 AM PDT
Date & Time Temp (°F) RH (%) Dew Pt (°F) Wet Bulb (°F) Wind Dir (°) Wind Spd (mph) Wind Gust (mph) WindChill (°F) Daily Min Temp (°F) Daily Max Temp (°F)
5/6/26 - 0500 39.8 86 35.9 37.8 E | 82 9.5 22.5 33.4 39.0 42.6
5/6/26 - 0400 39.5 87 36.0 37.8 N | 0 9.3 20.0 34.1 39.4 42.6
5/6/26 - 0300 40.4 85 36.3 38.4 E | 80 8.8 21.7 34.8 39.7 42.6
5/6/26 - 0200 40.0 87 36.3 38.2 E | 81 7.2 14.0 35.8 39.7 42.6
5/6/26 - 0100 41.7 81 36.3 38.9 E | 79 5.4 13.9 38.2 40.6 42.6
5/6/26 - 0000 41.6 79 35.7 38.6 E | 79 5.4 15.3 38.9 30.5 47.0
5/5/26 - 2300 42.8 73 34.8 38.8 ENE | 77 5.8 15.8 40.0 30.5 47.0
5/5/26 - 2200 44.9 65 33.9 39.4 NE | 42 7.9 18.4 41.0 30.5 47.0
5/5/26 - 2100 44.6 65 33.5 39.0 N | 0 6.0 17.4 40.8 30.5 47.0
5/5/26 - 2000 43.8 79 37.7 40.6 N | 0 6.4 13.4 39.5 30.5 47.0
5/5/26 - 1900 43.8 90 41.2 42.4 N | 0 5.1 15.4 40.0 30.5 47.0
5/5/26 - 1800 41.8 98 41.2 41.5 NW | 311 4.8 13.3 40.1 30.5 47.0
5/5/26 - 1700 46.3 89 43.2 44.6 N | 0 7.1 14.4 41.1 30.5 47.0
5/5/26 - 1600 44.4 70 35.3 39.8 E | 79 9.8 25.8 38.5 30.5 44.8
5/5/26 - 1500 43.1 78 36.6 39.8 N | 0 10.0 23.2 35.4 30.5 43.1
5/5/26 - 1400 39.4 98 39.0 39.2 ENE | 73 8.9 24.1 32.6 30.5 39.5
5/5/26 - 1300 37.4 100 37.3 37.4 ENE | 74 10.7 22.7 29.6 30.5 38.2
5/5/26 - 1200 35.8 100 35.8 35.8 N | 0 12.3 25.9 27.1 30.5 36.0
5/5/26 - 1100 34.8 100 34.8 34.8 E | 82 13.7 28.1 25.4 30.5 35.0
5/5/26 - 1000 34.1 100 34.1 34.1 E | 79 8.7 18.7 26.4 30.5 34.2
5/5/26 - 0900 33.1 100 33.1 33.1 E | 79 8.3 16.5 26.0 30.5 33.3
5/5/26 - 0800 32.3 100 32.3 32.3 E | 79 7.5 18.8 26.1 30.5 33.0
5/5/26 - 0700 32.3 100 32.3 32.3 ENE | 75 6.8 15.9 26.3 30.5 33.0
5/5/26 - 0600 32.9 100 32.9 32.9 ENE | 67 9.4 18.2 24.8 30.5 33.0
5/5/26 - 0500 32.4 100 32.4 32.4 ENE | 67 7.7 14.0 25.7 30.5 32.8
Max 46.3 100 43.2 44.6 - 13.7 28.1 41.1 40.6 47.0
Avg 39.3 88 35.9 37.6 - 8.1 18.7 33.7 - -
Min 32.3 65 32.3 32.3 - 4.8 13.3 24.8 30.5 32.8